Time;durP1;ratioP1;P1;durP2;ratioP2;P2;SDS_P1;SDS_P2;PMS_P1;PMS_P2;Temp;Humidity;BMP_temperature;BMP_pressure;BME280_temperature;BME280_humidity;BME280_pressure;Samples;Min_cycle;Max_cycle;Signal;HPM_P1;HPM_P2
2022/04/14 00:02:00;;;;;;;18.38;12.45;;;9.60;99.90;;;;;;4975154;28;20096;-77
2022/04/14 00:04:27;;;;;;;16.67;11.90;;;9.70;99.90;;;;;;4959492;28;20476;-77
2022/04/14 00:06:56;;;;;;;15.60;12.68;;;9.60;99.90;;;;;;4994983;28;20120;-77
2022/04/14 00:09:24;;;;;;;18.30;12.30;;;9.70;99.90;;;;;;4978583;28;20496;-78
2022/04/14 00:11:55;;;;;;;16.30;12.43;;;9.70;99.90;;;;;;4994793;28;20038;-77
2022/04/14 00:14:22;;;;;;;16.98;12.13;;;9.70;99.90;;;;;;4962547;28;20100;-77
2022/04/14 00:16:48;;;;;;;18.80;11.70;;;9.70;99.90;;;;;;4978392;28;20587;-77
2022/04/14 00:19:21;;;;;;;16.80;12.05;;;9.70;99.90;;;;;;4994744;28;20070;-78
2022/04/14 00:21:49;;;;;;;16.63;12.30;;;9.70;99.90;;;;;;4978436;28;20095;-77
2022/04/14 00:24:24;;;;;;;18.98;12.70;;;9.80;99.90;;;;;;4977702;28;20046;-77
2022/04/14 00:26:50;;;;;;;21.98;12.57;;;9.70;99.90;;;;;;4948551;28;20219;-77
2022/04/14 00:29:16;;;;;;;17.23;12.25;;;9.70;99.90;;;;;;4959871;28;20061;-77
2022/04/14 00:31:42;;;;;;;17.90;13.57;;;9.70;99.90;;;;;;4963644;28;20037;-78
2022/04/14 00:34:10;;;;;;;19.85;14.18;;;9.70;99.90;;;;;;4978397;28;20046;-78
2022/04/14 00:36:40;;;;;;;18.98;14.77;;;9.60;99.90;;;;;;4960326;28;20514;-77
2022/04/14 00:39:09;;;;;;;19.95;15.63;;;9.70;99.90;;;;;;4958498;28;20042;-78
2022/04/14 00:41:36;;;;;;;18.90;16.02;;;9.70;99.90;;;;;;4958618;28;20034;-77
2022/04/14 00:44:04;;;;;;;19.73;15.50;;;9.70;99.90;;;;;;4971805;28;20083;-77
2022/04/14 00:46:30;;;;;;;20.08;15.23;;;9.60;99.90;;;;;;4961441;28;20401;-77
2022/04/14 00:48:56;;;;;;;19.83;16.83;;;9.60;99.90;;;;;;4974408;28;20038;-78
2022/04/14 00:51:22;;;;;;;19.73;16.02;;;9.60;99.90;;;;;;4958890;28;20085;-78
2022/04/14 00:53:49;;;;;;;24.88;18.23;;;9.50;99.90;;;;;;4958473;28;20077;-78
2022/04/14 00:56:15;;;;;;;21.52;17.05;;;9.40;99.90;;;;;;4954860;28;20043;-78
2022/04/14 00:58:41;;;;;;;24.00;17.50;;;9.50;99.90;;;;;;4990759;28;20049;-77
2022/04/14 01:01:12;;;;;;;20.00;16.52;;;9.40;99.90;;;;;;4978086;28;20341;-78
2022/04/14 01:03:38;;;;;;;24.73;18.05;;;9.40;99.90;;;;;;4939637;28;20516;-78
2022/04/14 01:06:04;;;;;;;26.58;18.65;;;9.30;99.90;;;;;;4954365;28;20042;-78
2022/04/14 01:08:36;;;;;;;24.65;17.85;;;9.30;99.90;;;;;;4958962;28;20039;-77
2022/04/14 01:11:02;;;;;;;28.98;18.52;;;9.30;99.90;;;;;;4962011;28;20041;-78
2022/04/14 01:13:28;;;;;;;21.73;17.55;;;9.20;99.90;;;;;;4994071;28;20510;-77
2022/04/14 01:15:59;;;;;;;22.02;17.77;;;9.20;99.90;;;;;;4968431;28;20038;-77
2022/04/14 01:18:26;;;;;;;23.10;18.05;;;9.20;99.90;;;;;;4958293;28;20039;-77
2022/04/14 01:20:53;;;;;;;28.02;19.50;;;9.10;99.90;;;;;;4970205;28;20500;-79
2022/04/14 01:23:46;;;;;;;26.13;18.90;;;9.10;99.90;;;;;;4978765;28;20045;-78
2022/04/14 01:26:18;;;;;;;24.90;19.20;;;9.10;99.90;;;;;;4967014;28;20483;-78
2022/04/14 01:28:44;;;;;;;28.23;20.30;;;9.00;99.90;;;;;;4976609;28;20044;-77
2022/04/14 01:31:10;;;;;;;25.23;18.85;;;9.00;99.90;;;;;;4959418;28;20050;-78
2022/04/14 01:33:36;;;;;;;23.92;18.52;;;9.00;99.90;;;;;;4958960;28;20088;-78
2022/04/14 01:36:05;;;;;;;25.35;19.05;;;9.00;99.90;;;;;;4961651;28;20074;-78
2022/04/14 01:38:34;;;;;;;30.77;20.33;;;8.90;99.90;;;;;;4978664;28;20493;-78
2022/04/14 01:41:00;;;;;;;24.80;19.58;;;8.90;99.90;;;;;;4962610;28;20116;-78
2022/04/14 01:43:34;;;;;;;24.95;18.83;;;8.90;99.90;;;;;;4974882;28;20042;-78
2022/04/14 01:46:08;;;;;;;22.33;17.95;;;8.80;99.90;;;;;;4963285;28;20579;-78
2022/04/14 01:48:35;;;;;;;20.63;17.05;;;8.70;99.90;;;;;;4962726;28;20049;-78
2022/04/14 01:51:01;;;;;;;22.00;18.02;;;8.80;99.90;;;;;;4962669;28;20129;-78
2022/04/14 01:53:29;;;;;;;30.13;20.80;;;8.70;99.90;;;;;;4979351;28;20145;-78
2022/04/14 01:55:55;;;;;;;27.83;20.75;;;8.70;99.90;;;;;;4976245;28;20073;-78
2022/04/14 01:58:27;;;;;;;23.63;19.67;;;8.60;99.90;;;;;;4962891;28;20046;-78
2022/04/14 02:00:54;;;;;;;27.13;19.55;;;8.60;99.90;;;;;;4962419;28;20034;-78
2022/04/14 02:03:20;;;;;;;29.50;20.35;;;8.70;99.90;;;;;;4976753;28;20052;-78
2022/04/14 02:05:46;;;;;;;33.20;21.33;;;8.60;99.90;;;;;;4981820;28;20050;-78
2022/04/14 02:08:12;;;;;;;28.52;21.83;;;8.50;99.90;;;;;;4974954;28;20042;-78
2022/04/14 02:10:38;;;;;;;29.13;23.67;;;8.50;99.90;;;;;;4962821;28;20416;-78
2022/04/14 02:13:04;;;;;;;33.65;24.25;;;8.50;99.90;;;;;;4976331;28;20241;-78
2022/04/14 02:15:32;;;;;;;35.00;25.08;;;8.50;99.90;;;;;;4981565;28;20076;-78
2022/04/14 02:17:58;;;;;;;35.97;26.08;;;8.50;99.90;;;;;;4973889;28;20043;-78
2022/04/14 02:20:28;;;;;;;31.70;24.67;;;8.60;99.90;;;;;;4969835;28;20419;-78
2022/04/14 02:22:56;;;;;;;36.03;25.27;;;8.60;99.90;;;;;;4965415;28;20046;-78
2022/04/14 02:25:26;;;;;;;34.03;24.17;;;8.60;99.90;;;;;;4958905;28;20125;-78
2022/04/14 02:27:52;;;;;;;33.97;24.70;;;8.70;99.90;;;;;;4942814;28;20047;-77
2022/04/14 02:30:21;;;;;;;32.80;25.85;;;8.70;99.90;;;;;;4966135;28;20050;-78
2022/04/14 02:32:47;;;;;;;33.20;24.75;;;8.70;99.90;;;;;;4962282;28;20045;-78
2022/04/14 02:35:14;;;;;;;35.03;25.30;;;8.60;99.90;;;;;;4978189;28;20038;-78
2022/04/14 02:37:43;;;;;;;35.08;25.70;;;8.60;99.90;;;;;;4979079;28;20069;-78
2022/04/14 02:40:15;;;;;;;35.45;25.90;;;8.60;99.90;;;;;;4978901;28;20078;-78
2022/04/14 02:42:43;;;;;;;36.83;26.52;;;8.50;99.90;;;;;;4980508;28;20038;-78
2022/04/14 02:45:12;;;;;;;36.70;26.55;;;8.50;99.90;;;;;;4962140;28;20053;-78
2022/04/14 02:47:37;;;;;;;33.05;24.48;;;8.50;99.90;;;;;;4962225;28;20042;-78
2022/04/14 02:50:07;;;;;;;36.97;25.98;;;8.50;99.90;;;;;;4964539;28;20520;-78
2022/04/14 02:52:33;;;;;;;34.47;24.92;;;8.50;99.90;;;;;;4974954;28;20042;-78
2022/04/14 02:55:08;;;;;;;31.70;24.48;;;8.50;99.90;;;;;;4985490;28;20056;-78
2022/04/14 02:57:34;;;;;;;;;;;8.40;99.90;;;;;;4990792;28;20042;-78
2022/04/14 03:00:11;;;;;;;29.20;22.67;;;8.40;99.90;;;;;;4988652;28;19928;-78
2022/04/14 03:02:44;;;;;;;31.65;23.02;;;8.40;99.90;;;;;;4983149;28;20046;-77
2022/04/14 03:05:11;;;;;;;30.38;23.85;;;8.40;99.90;;;;;;4991619;28;20132;-78
2022/04/14 03:07:37;;;;;;;29.42;22.33;;;8.30;99.90;;;;;;4981055;28;20046;-78
2022/04/14 03:10:04;;;;;;;35.45;24.23;;;8.30;99.90;;;;;;4992127;28;20170;-78
2022/04/14 03:12:40;;;;;;;36.22;26.13;;;8.20;99.90;;;;;;4968599;28;20050;-78
2022/04/14 03:15:13;;;;;;;37.10;25.48;;;8.20;99.90;;;;;;4980290;28;20042;-78
2022/04/14 03:17:50;;;;;;;38.10;27.45;;;8.20;99.90;;;;;;4980458;28;20069;-78
2022/04/14 03:20:16;;;;;;;37.38;26.67;;;8.20;99.90;;;;;;4960044;28;20050;-78
2022/04/14 03:22:45;;;;;;;43.92;29.05;;;8.20;99.90;;;;;;4968962;28;20153;-78
2022/04/14 03:25:16;;;;;;;39.50;28.35;;;8.30;99.90;;;;;;4964663;28;20047;-78
2022/04/14 03:27:45;;;;;;;39.95;28.65;;;8.20;99.90;;;;;;4960527;28;20042;-78
2022/04/14 03:30:17;;;;;;;42.63;27.90;;;8.30;99.90;;;;;;4960963;28;20049;-78
2022/04/14 03:32:46;;;;;;;33.30;26.95;;;8.30;99.90;;;;;;4968415;28;20049;-78
2022/04/14 03:35:18;;;;;;;41.75;29.15;;;8.30;99.90;;;;;;4979441;28;20049;-78
2022/04/14 03:37:44;;;;;;;47.05;31.38;;;8.20;99.90;;;;;;4962142;28;20042;-78
2022/04/14 03:40:16;;;;;;;42.35;30.05;;;8.20;99.90;;;;;;4960552;28;20038;-78
2022/04/14 03:42:43;;;;;;;37.60;27.80;;;8.20;99.90;;;;;;4967834;28;20124;-78
2022/04/14 03:45:12;;;;;;;41.35;28.77;;;8.30;99.90;;;;;;4978756;28;20045;-78
2022/04/14 03:47:41;;;;;;;36.35;27.05;;;8.20;99.90;;;;;;4980318;28;20057;-78
2022/04/14 03:50:10;;;;;;;32.90;24.77;;;8.20;99.90;;;;;;4972639;28;20049;-79
2022/04/14 03:52:36;;;;;;;38.63;27.17;;;8.10;99.90;;;;;;4950860;28;20146;-77
2022/04/14 03:55:08;;;;;;;35.28;26.58;;;8.10;99.90;;;;;;4996248;28;20034;-76
2022/04/14 03:57:37;;;;;;;29.70;22.27;;;8.00;99.90;;;;;;4978370;28;20038;-76
2022/04/14 04:00:08;;;;;;;28.52;21.98;;;7.80;99.90;;;;;;4978510;28;20042;-76
2022/04/14 04:02:40;;;;;;;29.50;22.75;;;7.80;99.90;;;;;;4972641;28;20104;-76
2022/04/14 04:05:12;;;;;;;32.75;24.98;;;7.80;99.90;;;;;;4958814;28;20077;-76
2022/04/14 04:07:42;;;;;;;37.70;26.83;;;7.70;99.90;;;;;;4966963;28;20120;-76
2022/04/14 04:10:13;;;;;;;31.85;24.58;;;7.60;99.90;;;;;;4979144;28;20038;-76
2022/04/14 04:12:44;;;;;;;34.33;26.45;;;7.60;99.90;;;;;;4972240;28;20409;-76
2022/04/14 04:15:12;;;;;;;35.65;26.48;;;7.50;99.90;;;;;;4959198;28;20481;-76
2022/04/14 04:17:57;;;;;;;39.67;27.83;;;7.40;99.90;;;;;;4959257;28;20386;-76
2022/04/14 04:20:28;;;;;;;39.38;28.02;;;7.40;99.90;;;;;;4959236;28;20069;-76
2022/04/14 04:22:56;;;;;;;40.20;27.42;;;7.40;99.90;;;;;;4966560;28;20033;-76
2022/04/14 04:25:25;;;;;;;40.00;26.88;;;7.30;99.90;;;;;;4978471;28;20059;-76
2022/04/14 04:28:06;;;;;;;37.00;27.23;;;7.40;99.90;;;;;;4967256;28;20049;-76
2022/04/14 04:30:40;;;;;;;42.13;30.10;;;7.30;99.90;;;;;;4958730;28;20061;-77
2022/04/14 04:33:08;;;;;;;39.70;27.58;;;7.30;99.90;;;;;;4982563;28;20128;-76
2022/04/14 04:35:36;;;;;;;43.75;29.42;;;7.30;99.90;;;;;;4978358;28;20037;-77
2022/04/14 04:38:08;;;;;;;41.33;27.55;;;7.20;99.90;;;;;;4978537;28;20096;-77
2022/04/14 04:40:36;;;;;;;35.00;26.85;;;7.30;99.90;;;;;;4977875;28;20038;-77
2022/04/14 04:43:04;;;;;;;35.20;25.75;;;7.30;99.90;;;;;;4969993;28;20054;-78
2022/04/14 04:45:36;;;;;;;35.55;27.08;;;7.20;99.90;;;;;;4959094;28;20050;-78
2022/04/14 04:48:07;;;;;;;37.38;27.25;;;7.20;99.90;;;;;;4943768;28;20401;-78
2022/04/14 04:50:38;;;;;;;40.25;28.40;;;7.10;99.90;;;;;;4959406;28;20043;-78
2022/04/14 04:53:14;;;;;;;41.83;28.75;;;7.10;99.90;;;;;;4959541;28;20085;-78
2022/04/14 04:55:39;;;;;;;41.40;30.42;;;7.20;99.90;;;;;;4958900;28;20034;-78
2022/04/14 04:58:14;;;;;;;41.92;28.15;;;7.10;99.90;;;;;;4959328;28;20046;-78
2022/04/14 05:00:40;;;;;;;42.50;29.27;;;7.10;99.90;;;;;;4963885;28;20030;-78
2022/04/14 05:03:15;;;;;;;47.88;31.23;;;7.10;99.90;;;;;;4987592;28;20054;-78
2022/04/14 05:05:43;;;;;;;46.22;29.58;;;7.10;99.90;;;;;;4959089;28;20053;-78
2022/04/14 05:08:09;;;;;;;48.55;31.85;;;7.00;99.90;;;;;;4959205;28;20501;-78
2022/04/14 05:10:38;;;;;;;41.30;29.25;;;7.00;99.90;;;;;;4960544;28;20042;-78
2022/04/14 05:13:07;;;;;;;38.03;28.48;;;7.10;99.90;;;;;;4967593;28;20104;-78
2022/04/14 05:15:40;;;;;;;37.22;27.58;;;7.00;99.90;;;;;;4982623;28;20037;-78
2022/04/14 05:18:06;;;;;;;38.92;27.83;;;7.00;99.90;;;;;;4980523;28;20104;-77
2022/04/14 05:20:45;;;;;;;43.30;29.55;;;7.00;99.90;;;;;;4971856;28;20046;-80
2022/04/14 05:23:33;;;;;;;35.38;28.15;;;7.00;99.90;;;;;;4966778;28;20408;-80
2022/04/14 05:26:17;;;;;;;42.03;29.80;;;7.10;99.90;;;;;;4963489;28;20050;-79
2022/04/14 05:29:37;;;;;;;39.53;26.83;;;7.00;99.90;;;;;;4978527;28;20061;-78
2022/04/14 05:33:27;;;;;;;46.78;31.42;;;7.10;99.90;;;;;;4929953;28;20042;-79
2022/04/14 05:36:24;;;;;;;47.50;32.53;;;7.10;99.90;;;;;;4945431;28;20137;-78
2022/04/14 05:39:15;;;;;;;;;;;7.20;99.90;;;;;;4958682;28;20051;-79
2022/04/14 05:42:23;;;;;;;52.33;32.38;;;7.20;99.90;;;;;;4951976;28;19922;-79
2022/04/14 05:45:54;;;;;;;;;;;;;;;;;;;;;
2022/04/14 05:56:42;;;;;;;;;;;;;;;;;;;;;
2022/04/14 06:06:33;;;;;;;67.93;44.22;;;7.90;99.90;;;;;;4912326;29;20054;-80
2022/04/14 06:09:38;;;;;;;74.25;44.50;;;8.00;99.90;;;;;;4920787;29;20039;-79
2022/04/14 06:12:36;;;;;;;77.15;45.65;;;8.20;99.90;;;;;;4892879;29;20047;-78
2022/04/14 06:15:59;;;;;;;69.32;46.40;;;8.30;99.90;;;;;;4909620;29;20099;-80
2022/04/14 06:22:52;;;;;;;75.15;47.90;;;8.60;99.90;;;;;;4917115;29;20467;-80
2022/04/14 06:25:39;;;;;;;91.75;55.05;;;8.70;99.90;;;;;;4882568;29;20066;-83
2022/04/14 06:28:10;;;;;;;93.65;58.17;;;8.80;99.90;;;;;;4936891;28;20504;-83
2022/04/14 06:31:09;;;;;;;;;;;;;;;;;;;;;
2022/04/14 06:34:15;;;;;;;;;;;;;;;;;;;;;
2022/04/14 06:36:53;;;;;;;98.40;58.58;;;9.20;99.90;;;;;;4958399;28;20457;-83
2022/04/14 06:39:53;;;;;;;93.85;58.05;;;9.30;99.90;;;;;;4963260;28;20050;-82
2022/04/14 06:42:43;;;;;;;90.00;56.75;;;9.40;99.90;;;;;;4978357;28;20386;-82
2022/04/14 06:45:34;;;;;;;91.22;58.90;;;9.50;99.90;;;;;;4959997;28;20113;-81
2022/04/14 06:48:17;;;;;;;88.95;60.25;;;9.60;99.90;;;;;;4961121;28;20509;-82
2022/04/14 06:51:02;;;;;;;84.10;55.45;;;9.70;99.90;;;;;;4992193;28;20125;-82
2022/04/14 06:53:49;;;;;;;;;;;;;;;;;;;;;
2022/04/14 06:56:58;;;;;;;80.13;55.80;;;9.90;99.90;;;;;;4985002;28;20104;-82
2022/04/14 06:59:39;;;;;;;82.05;54.78;;;9.90;99.90;;;;;;4964415;28;20474;-82
2022/04/14 07:02:24;;;;;;;83.47;54.63;;;10.10;99.90;;;;;;4980640;28;20042;-82
2022/04/14 07:05:11;;;;;;;83.55;57.15;;;10.10;99.90;;;;;;4966711;28;20038;-82
2022/04/14 07:08:00;;;;;;;76.43;52.53;;;10.20;99.90;;;;;;4973084;28;20050;-82
2022/04/14 07:10:40;;;;;;;79.40;51.85;;;10.40;99.90;;;;;;4964852;28;20120;-82
2022/04/14 07:13:09;;;;;;;68.60;48.50;;;10.50;99.90;;;;;;4964733;28;20073;-82
2022/04/14 07:16:43;;;;;;;69.35;47.15;;;10.60;99.90;;;;;;4978145;28;20043;-83
2022/04/14 07:19:31;;;;;;;60.25;41.20;;;10.70;99.90;;;;;;4957282;28;20053;-82
2022/04/14 07:22:11;;;;;;;60.28;42.28;;;10.90;99.90;;;;;;4969614;28;20038;-82
2022/04/14 07:25:17;;;;;;;57.00;41.20;;;11.00;99.90;;;;;;4965845;28;20045;-82
2022/04/14 07:28:01;;;;;;;54.97;38.63;;;11.10;99.90;;;;;;4998473;28;20069;-82
2022/04/14 07:30:46;;;;;;;53.38;38.45;;;11.20;99.90;;;;;;4949812;28;20524;-82
2022/04/14 07:33:42;;;;;;;51.78;38.10;;;11.30;99.90;;;;;;4964824;28;20077;-82
2022/04/14 07:39:56;;;;;;;47.75;36.42;;;11.60;99.90;;;;;;4996301;28;20501;-83
2022/04/14 07:42:41;;;;;;;49.30;35.23;;;11.60;99.90;;;;;;4986882;28;20043;-82
2022/04/14 07:45:52;;;;;;;43.03;32.38;;;11.70;99.90;;;;;;4993365;28;20102;-82
2022/04/14 07:48:23;;;;;;;46.03;33.38;;;11.80;99.90;;;;;;4971232;28;20047;-83
2022/04/14 07:54:36;;;;;;;42.72;30.52;;;12.00;99.90;;;;;;4955623;29;20553;-83
2022/04/14 07:57:22;;;;;;;40.70;29.85;;;12.00;99.90;;;;;;4916043;29;20047;-81
2022/04/14 08:00:10;;;;;;;36.95;26.60;;;12.10;99.90;;;;;;4921677;29;20051;-83
2022/04/14 08:03:11;;;;;;;37.50;28.55;;;12.20;99.90;;;;;;4945363;29;20259;-83
2022/04/14 08:05:57;;;;;;;36.60;28.58;;;12.40;99.90;;;;;;4949692;29;20690;-82
2022/04/14 08:09:09;;;;;;;;;;;;;;;;;;;;;
2022/04/14 08:11:43;;;;;;;37.15;29.08;;;12.60;99.90;;;;;;4954098;28;20094;-83
2022/04/14 08:14:59;;;;;;;36.13;27.30;;;12.80;99.90;;;;;;4949416;28;20505;-83
2022/04/14 08:17:48;;;;;;;;;;;;;;;;;;;;;
2022/04/14 08:20:45;;;;;;;33.72;26.42;;;13.10;99.90;;;;;;4989932;28;20082;-82
2022/04/14 08:23:25;;;;;;;33.30;26.93;;;13.20;99.90;;;;;;4940407;29;20129;-83
2022/04/14 08:26:11;;;;;;;31.67;25.15;;;13.30;99.90;;;;;;4941672;29;20835;-81
2022/04/14 08:28:58;;;;;;;27.70;21.05;;;13.50;99.90;;;;;;4944440;29;20098;-81
2022/04/14 08:31:34;;;;;;;23.42;19.02;;;13.70;99.90;;;;;;4934668;29;20058;-81
2022/04/14 08:34:48;;;;;;;23.10;17.35;;;14.10;99.90;;;;;;4931575;29;20126;-82
2022/04/14 08:37:18;;;;;;;21.05;15.88;;;15.10;99.90;;;;;;4906170;29;20501;-82
2022/04/14 08:40:26;;;;;;;19.42;16.33;;;16.00;99.90;;;;;;4920542;29;20080;-82
2022/04/14 08:42:59;;;;;;;20.70;17.77;;;17.10;99.90;;;;;;4896863;29;20120;-82
2022/04/14 08:45:32;;;;;;;19.13;16.60;;;17.80;99.90;;;;;;4896124;29;20056;-82
2022/04/14 08:48:20;;;;;;;17.30;14.88;;;18.50;99.90;;;;;;4906135;28;20058;-83
2022/04/14 08:50:56;;;;;;;19.42;14.85;;;19.20;99.90;;;;;;4990563;28;20074;-82
2022/04/14 08:53:30;;;;;;;18.27;14.48;;;19.50;99.90;;;;;;4974490;28;20050;-82
2022/04/14 08:56:08;;;;;;;14.43;12.93;;;20.00;99.90;;;;;;4966207;28;20046;-82
2022/04/14 08:59:12;;;;;;;12.13;10.82;;;20.40;99.90;;;;;;4960176;28;20485;-82
2022/04/14 09:01:47;;;;;;;12.98;11.27;;;20.70;99.90;;;;;;4972857;28;20057;-82
2022/04/14 09:04:30;;;;;;;13.85;10.77;;;20.90;99.90;;;;;;4945298;28;20070;-82
2022/04/14 09:07:21;;;;;;;10.30;9.27;;;21.20;99.90;;;;;;4976376;28;20042;-82
2022/04/14 09:10:40;;;;;;;9.77;8.77;;;21.60;99.90;;;;;;4920375;29;20040;-82
2022/04/14 09:13:43;;;;;;;9.77;8.88;;;21.90;99.90;;;;;;4926605;28;20060;-82
2022/04/14 09:16:22;;;;;;;12.50;11.30;;;21.80;99.90;;;;;;4943648;28;20046;-83
2022/04/14 09:19:10;;;;;;;12.95;11.50;;;21.70;99.90;;;;;;4976085;28;20054;-82
2022/04/14 09:25:00;;;;;;;15.70;14.00;;;22.00;99.90;;;;;;4990391;28;20048;-83
2022/04/14 09:27:40;;;;;;;15.85;13.57;;;22.10;99.90;;;;;;4944749;28;20101;-82
2022/04/14 09:31:02;;;;;;;12.88;11.57;;;22.40;99.90;;;;;;4936158;28;20062;-82
2022/04/14 09:34:20;;;;;;;11.98;10.77;;;22.60;97.20;;;;;;4971794;28;20047;-82
2022/04/14 09:37:11;;;;;;;11.70;10.60;;;22.40;94.70;;;;;;4972451;28;20569;-82
2022/04/14 09:40:12;;;;;;;10.63;9.63;;;22.20;91.50;;;;;;4956446;28;20051;-83
2022/04/14 09:43:05;;;;;;;11.00;10.00;;;22.40;96.40;;;;;;4963539;28;20049;-81
2022/04/14 09:46:25;;;;;;;10.98;10.00;;;22.40;96.90;;;;;;4967264;28;20057;-81
2022/04/14 09:50:05;;;;;;;10.60;9.63;;;22.30;79.80;;;;;;4994278;28;20468;-81
2022/04/14 09:53:41;;;;;;;11.80;10.68;;;22.40;95.70;;;;;;4924471;29;20056;-80
2022/04/14 10:00:17;;;;;;;11.48;10.32;;;23.40;91.60;;;;;;4912104;29;20052;-81
2022/04/14 10:06:43;;;;;;;13.55;12.23;;;23.50;80.20;;;;;;4939058;29;19925;-80
2022/04/14 10:10:12;;;;;;;;;;;;;;;;;;;;;
2022/04/14 10:17:33;;;;;;;12.95;11.65;;;22.50;81.20;;;;;;4822689;29;20113;-81
2022/04/14 10:20:51;;;;;;;;;;;;;;;;;;;;;
2022/04/14 10:23:51;;;;;;;10.25;9.25;;;22.80;89.10;;;;;;4834695;29;20064;-81
2022/04/14 10:27:05;;;;;;;10.60;9.15;;;22.60;85.00;;;;;;4834291;29;20114;-81
2022/04/14 10:30:08;;;;;;;10.65;9.60;;;22.30;79.80;;;;;;4879644;29;20357;-80
2022/04/14 10:33:28;;;;;;;10.57;9.23;;;22.10;89.60;;;;;;4795489;29;20054;-81
2022/04/14 10:43:36;;;;;;;;;;;;;;;;;;;;;
2022/04/14 10:46:47;;;;;;;9.02;8.13;;;22.90;82.50;;;;;;4907370;28;20604;-81
2022/04/14 10:54:35;;;;;;;7.05;6.00;;;22.90;73.90;;;;;;4830874;29;20141;-81
2022/04/14 10:57:55;;;;;;;10.38;7.18;;;23.20;78.90;;;;;;4896908;29;20048;-81
2022/04/14 11:05:06;;;;;;;9.23;7.70;;;23.30;72.10;;;;;;4889573;29;20515;-80
2022/04/14 11:12:18;;;;;;;7.60;6.80;;;23.10;72.70;;;;;;4932029;29;20047;-80
2022/04/14 11:27:19;;;;;;;;;;;;;;;;;;;;;
2022/04/14 11:34:28;;;;;;;6.10;5.00;;;23.50;60.70;;;;;;4831909;29;20057;-81
2022/04/14 11:38:08;;;;;;;;;;;;;;;;;;;;;
2022/04/14 11:42:16;;;;;;;;;;;;;;;;;;;;;
2022/04/14 11:45:49;;;;;;;;;;;;;;;;;;;;;
2022/04/14 11:57:29;;;;;;;;;;;;;;;;;;;;;
2022/04/14 16:07:02;;;;;;;5.82;2.70;;;17.00;95.20;;;;;;4948980;29;20067;-80
2022/04/14 16:13:15;;;;;;;3.08;1.50;;;16.60;94.80;;;;;;4927642;29;20048;-80
2022/04/14 16:16:05;;;;;;;5.65;2.40;;;16.50;95.80;;;;;;4898745;29;20091;-80
2022/04/14 16:18:43;;;;;;;5.68;3.08;;;16.30;96.50;;;;;;4920665;29;20070;-81
2022/04/14 16:21:12;;;;;;;8.60;3.38;;;16.30;97.50;;;;;;4902635;29;20372;-79
2022/04/14 16:23:44;;;;;;;5.22;2.60;;;16.20;99.00;;;;;;4902701;29;20052;-78
2022/04/14 16:26:49;;;;;;;6.07;2.55;;;16.20;99.00;;;;;;4917276;29;20514;-79
2022/04/14 16:29:39;;;;;;;5.45;2.58;;;16.00;99.20;;;;;;4933700;29;20044;-79
2022/04/14 16:32:34;;;;;;;7.95;3.20;;;15.90;99.30;;;;;;4912289;29;20036;-78
2022/04/14 16:38:42;;;;;;;8.60;3.05;;;15.70;99.90;;;;;;4914709;29;20039;-78
2022/04/14 16:41:33;;;;;;;5.00;2.80;;;15.70;99.90;;;;;;4914661;29;20048;-78
2022/04/14 16:44:41;;;;;;;6.03;2.95;;;15.70;99.90;;;;;;4910234;29;20481;-79
2022/04/14 16:47:43;;;;;;;6.43;3.40;;;15.70;99.90;;;;;;4913762;29;20056;-79
2022/04/14 16:50:12;;;;;;;8.10;3.78;;;15.60;99.90;;;;;;4917177;29;20181;-77
2022/04/14 16:52:44;;;;;;;7.20;3.90;;;15.60;99.90;;;;;;4919341;29;20048;-78
2022/04/14 16:58:43;;;;;;;7.40;4.15;;;15.60;99.90;;;;;;4900307;29;20047;-78
2022/04/14 17:01:40;;;;;;;6.97;3.85;;;15.60;99.90;;;;;;4907926;29;20040;-79
2022/04/14 17:05:04;;;;;;;;;;;;;;;;;;;;;
2022/04/14 17:07:50;;;;;;;6.28;3.60;;;15.60;99.90;;;;;;4942258;29;20052;-79
2022/04/14 17:10:46;;;;;;;7.40;3.65;;;15.50;99.90;;;;;;4901034;29;20099;-79
2022/04/14 17:13:29;;;;;;;7.00;3.35;;;15.40;99.90;;;;;;4907877;29;20059;-79
2022/04/14 17:16:37;;;;;;;7.25;4.07;;;15.30;99.90;;;;;;4916864;29;20052;-79
2022/04/14 17:20:06;;;;;;;8.40;4.03;;;15.20;99.90;;;;;;4923073;29;20136;-79
2022/04/14 17:26:56;;;;;;;9.07;4.07;;;15.00;99.90;;;;;;4885597;29;20067;-80
2022/04/14 17:30:24;;;;;;;4.40;2.80;;;14.80;99.90;;;;;;4862473;29;20109;-80
2022/04/14 17:33:25;;;;;;;7.68;3.90;;;14.60;99.90;;;;;;4802665;30;20602;-80
2022/04/14 17:36:15;;;;;;;6.47;3.55;;;14.50;99.90;;;;;;4790862;29;20056;-80
2022/04/14 17:39:21;;;;;;;5.93;3.80;;;14.30;99.90;;;;;;4775879;30;20066;-80
2022/04/14 17:42:11;;;;;;;6.82;3.80;;;14.20;99.90;;;;;;4818258;29;20042;-80
2022/04/14 17:44:49;;;;;;;6.38;4.13;;;14.20;99.90;;;;;;4889063;29;20135;-79
2022/04/14 17:58:50;;;;;;;4.50;3.50;;;13.40;99.90;;;;;;5048388;23;20063;-76
2022/04/14 18:01:24;;;;;;;5.15;3.38;;;13.30;99.90;;;;;;4951521;29;20061;-76
2022/04/14 18:03:56;;;;;;;5.80;3.88;;;13.30;99.90;;;;;;4933840;29;20099;-76
2022/04/14 18:06:36;;;;;;;4.93;3.43;;;13.20;99.90;;;;;;4918481;29;20047;-76
2022/04/14 18:09:20;;;;;;;5.25;3.55;;;13.00;99.90;;;;;;4921883;29;20052;-76
2022/04/14 18:12:16;;;;;;;6.28;4.10;;;12.90;99.90;;;;;;4937348;29;20039;-76
2022/04/14 18:14:44;;;;;;;8.20;4.63;;;12.80;99.90;;;;;;4901346;29;20098;-76
2022/04/14 18:17:15;;;;;;;8.68;5.00;;;12.70;99.90;;;;;;4912840;29;20564;-76
2022/04/14 18:19:55;;;;;;;7.00;4.75;;;12.60;99.90;;;;;;4931372;29;20036;-76
2022/04/14 18:22:29;;;;;;;7.35;4.57;;;12.50;99.90;;;;;;4907140;29;20043;-76
2022/04/14 18:24:54;;;;;;;8.43;4.95;;;12.30;99.90;;;;;;4899871;29;20063;-76
2022/04/14 18:27:38;;;;;;;9.20;5.25;;;12.30;99.90;;;;;;4903091;29;20047;-76
2022/04/14 18:30:12;;;;;;;7.68;5.50;;;12.20;99.90;;;;;;4919916;29;20087;-76
2022/04/14 18:32:44;;;;;;;9.15;5.57;;;12.10;99.90;;;;;;4917942;29;20056;-76
2022/04/14 18:35:30;;;;;;;8.82;6.03;;;12.00;99.90;;;;;;4928949;29;20135;-76
2022/04/14 18:38:02;;;;;;;8.60;5.85;;;11.90;99.90;;;;;;4934552;29;20056;-78
2022/04/14 18:40:28;;;;;;;8.23;5.82;;;11.80;99.90;;;;;;4919889;29;20511;-77
2022/04/14 18:42:59;;;;;;;9.80;6.00;;;11.70;99.90;;;;;;4919373;29;20043;-77
2022/04/14 18:45:39;;;;;;;10.10;5.88;;;11.60;99.90;;;;;;4918450;29;20070;-77
2022/04/14 18:48:12;;;;;;;7.00;4.88;;;11.50;99.90;;;;;;4918015;29;20518;-77
2022/04/14 18:50:43;;;;;;;9.75;6.38;;;11.40;99.90;;;;;;4915247;29;20035;-77
2022/04/14 18:53:18;;;;;;;9.65;6.68;;;11.30;99.90;;;;;;4912966;29;20091;-77
2022/04/14 18:56:10;;;;;;;9.93;5.68;;;11.30;99.90;;;;;;4918317;29;20046;-77
2022/04/14 18:58:36;;;;;;;9.40;6.20;;;11.20;99.90;;;;;;4916030;29;20526;-77
2022/04/14 19:01:19;;;;;;;11.15;6.30;;;11.10;99.90;;;;;;4918143;29;20035;-77
2022/04/14 19:04:01;;;;;;;7.60;5.80;;;11.10;99.90;;;;;;4903547;29;20050;-77
2022/04/14 19:06:36;;;;;;;7.28;6.05;;;10.90;99.90;;;;;;4918141;29;20039;-78
2022/04/14 19:09:15;;;;;;;11.23;7.22;;;10.90;99.90;;;;;;4933366;29;20406;-77
2022/04/14 19:11:41;;;;;;;13.48;7.03;;;10.80;99.90;;;;;;4917716;29;20589;-77
2022/04/14 19:14:07;;;;;;;9.35;6.82;;;10.80;99.90;;;;;;4917566;29;20075;-77
2022/04/14 19:16:45;;;;;;;8.85;6.85;;;10.70;99.90;;;;;;4917788;29;20035;-78
2022/04/14 19:19:20;;;;;;;9.93;6.88;;;10.60;99.90;;;;;;4917899;29;20047;-77
2022/04/14 19:21:49;;;;;;;10.20;6.35;;;10.50;99.90;;;;;;4917975;29;20138;-77
2022/04/14 19:24:20;;;;;;;9.88;7.00;;;10.50;99.90;;;;;;4902313;29;20462;-77
2022/04/14 19:26:55;;;;;;;14.07;8.23;;;10.40;99.90;;;;;;4917307;29;20059;-77
2022/04/14 19:29:30;;;;;;;10.85;7.63;;;10.40;99.90;;;;;;4916513;29;20124;-77
2022/04/14 19:32:08;;;;;;;10.52;8.02;;;10.20;99.90;;;;;;4932893;29;20098;-78
2022/04/14 19:34:53;;;;;;;10.73;7.68;;;10.10;99.90;;;;;;4917858;29;20131;-78
2022/04/14 19:37:30;;;;;;;10.40;7.55;;;10.10;99.90;;;;;;4918156;29;20098;-77
2022/04/14 19:39:58;;;;;;;9.57;7.72;;;10.10;99.90;;;;;;4917685;29;20118;-78
2022/04/14 19:42:46;;;;;;;10.68;7.93;;;10.10;99.90;;;;;;4932712;29;20048;-78
2022/04/14 19:45:12;;;;;;;13.27;8.25;;;10.00;99.90;;;;;;4917715;29;20036;-77
2022/04/14 19:47:48;;;;;;;10.45;8.40;;;10.00;99.90;;;;;;4933628;29;20146;-78
2022/04/14 19:50:27;;;;;;;13.48;9.18;;;10.00;99.90;;;;;;4898923;29;20048;-77
2022/04/14 19:53:05;;;;;;;13.80;9.32;;;10.00;99.90;;;;;;4909923;29;20047;-78
2022/04/14 19:55:44;;;;;;;13.10;9.57;;;9.90;99.90;;;;;;4934201;29;20056;-77
2022/04/14 19:58:38;;;;;;;12.90;10.90;;;9.90;99.90;;;;;;4919120;29;20050;-77
2022/04/14 20:01:28;;;;;;;16.33;13.10;;;9.80;99.90;;;;;;4917799;29;20048;-77
2022/04/14 20:04:31;;;;;;;16.67;14.20;;;9.70;99.90;;;;;;4917073;29;20044;-78
2022/04/14 20:07:00;;;;;;;17.85;13.52;;;9.60;99.90;;;;;;4916970;29;20100;-77
2022/04/14 20:09:52;;;;;;;21.98;13.95;;;9.50;99.90;;;;;;4917661;29;20055;-77
2022/04/14 20:12:30;;;;;;;15.88;13.52;;;9.40;99.90;;;;;;4917020;29;20517;-78